createdAt,value
2022-07-29T00:00:25.750Z,1.00
2022-07-29T00:02:54.212Z,1.00
2022-07-29T00:05:22.372Z,1.00
2022-07-29T00:07:50.444Z,1.00
2022-07-29T00:10:18.794Z,1.00
2022-07-29T00:12:46.964Z,1.00
2022-07-29T00:15:15.439Z,1.00
2022-07-29T00:17:45.304Z,1.00
2022-07-29T00:20:13.592Z,1.00
2022-07-29T00:22:42.076Z,1.00
2022-07-29T00:25:10.817Z,1.00
2022-07-29T00:27:38.890Z,1.00
2022-07-29T00:30:08.378Z,1.00
2022-07-29T00:32:36.813Z,1.00
2022-07-29T00:35:29.845Z,1.00
2022-07-29T00:37:58.068Z,1.00
2022-07-29T00:40:26.255Z,1.00
2022-07-29T00:42:54.759Z,1.00
2022-07-29T00:45:23.995Z,99.90
2022-07-29T00:47:52.402Z,1.00
2022-07-29T00:50:21.897Z,1.00
2022-07-29T00:52:50.204Z,1.00
2022-07-29T00:55:19.065Z,1.00
2022-07-29T00:57:47.421Z,1.00
2022-07-29T01:00:18.411Z,1.00
2022-07-29T01:02:49.168Z,99.90
2022-07-29T01:05:19.106Z,99.90
2022-07-29T01:07:50.504Z,99.90
2022-07-29T01:10:20.450Z,99.90
2022-07-29T01:12:51.284Z,90.50
2022-07-29T01:15:19.561Z,90.80
2022-07-29T01:17:54.058Z,99.90
2022-07-29T01:20:31.480Z,99.90
2022-07-29T01:23:32.778Z,99.90
2022-07-29T01:26:15.168Z,99.90
2022-07-29T01:29:00.342Z,99.90
2022-07-29T01:31:45.385Z,99.90
2022-07-29T01:34:32.933Z,1.00
2022-07-29T01:37:08.466Z,1.00
2022-07-29T01:39:39.400Z,99.90
2022-07-29T01:42:14.735Z,1.00
2022-07-29T01:44:50.541Z,1.00
2022-07-29T01:47:24.469Z,1.00
2022-07-29T01:49:58.342Z,1.00
2022-07-29T01:52:36.897Z,1.00
2022-07-29T01:55:09.956Z,1.00
2022-07-29T01:57:41.469Z,99.90
2022-07-29T02:00:12.877Z,99.90
2022-07-29T02:02:44.556Z,1.00
2022-07-29T02:05:16.828Z,1.00
2022-07-29T02:07:46.509Z,59.50
2022-07-29T02:10:16.675Z,1.30
2022-07-29T02:12:50.801Z,1.00
2022-07-29T02:15:22.219Z,1.00
2022-07-29T02:17:53.912Z,1.00
2022-07-29T02:20:22.344Z,99.00
2022-07-29T02:22:52.919Z,99.90
2022-07-29T02:25:23.095Z,99.90
2022-07-29T02:27:53.504Z,99.90
2022-07-29T02:30:25.748Z,1.00
2022-07-29T02:32:55.578Z,99.90
2022-07-29T02:35:24.518Z,1.00
2022-07-29T02:38:07.955Z,1.00
2022-07-29T02:40:39.650Z,99.90
2022-07-29T02:43:09.745Z,99.90
2022-07-29T02:45:39.530Z,99.90
2022-07-29T02:48:12.311Z,99.90
2022-07-29T02:50:46.443Z,99.90
2022-07-29T02:53:19.836Z,99.90
2022-07-29T02:55:53.500Z,99.90
2022-07-29T02:58:29.334Z,99.90
2022-07-29T03:01:00.559Z,99.90
2022-07-29T03:03:33.554Z,99.90
2022-07-29T03:06:04.462Z,99.90
2022-07-29T03:08:34.326Z,99.90
2022-07-29T03:11:03.822Z,99.90
2022-07-29T03:13:32.637Z,99.90
2022-07-29T03:16:03.865Z,61.70
2022-07-29T03:18:33.187Z,26.60
2022-07-29T03:21:01.644Z,95.90
2022-07-29T03:23:35.260Z,99.90
2022-07-29T03:26:05.228Z,99.90
2022-07-29T03:28:33.307Z,1.00
2022-07-29T03:31:03.721Z,1.00
2022-07-29T03:33:33.867Z,1.00
2022-07-29T03:36:03.473Z,1.00
2022-07-29T03:38:33.913Z,1.00
2022-07-29T03:41:06.823Z,1.00
2022-07-29T03:43:49.581Z,1.00
2022-07-29T03:46:22.988Z,1.00
2022-07-29T03:48:57.550Z,1.00
2022-07-29T03:51:33.897Z,1.00
2022-07-29T03:54:09.315Z,1.00
2022-07-29T03:56:42.325Z,1.00
2022-07-29T03:59:11.551Z,1.00
2022-07-29T04:01:41.738Z,1.00
2022-07-29T04:04:09.961Z,1.00
2022-07-29T04:06:42.213Z,1.00
2022-07-29T04:09:11.450Z,1.00
2022-07-29T04:12:03.511Z,1.00
2022-07-29T04:14:29.761Z,1.00
2022-07-29T04:16:59.165Z,1.00
2022-07-29T04:19:27.430Z,1.00
2022-07-29T04:21:55.691Z,1.00
2022-07-29T04:24:23.883Z,1.00
2022-07-29T04:26:51.910Z,1.00
2022-07-29T04:29:20.895Z,1.00
2022-07-29T04:31:49.185Z,1.00
2022-07-29T04:34:19.260Z,1.00
2022-07-29T04:36:47.921Z,1.00
2022-07-29T04:39:20.716Z,1.00
2022-07-29T04:41:51.191Z,1.00
2022-07-29T04:44:20.867Z,1.00
2022-07-29T04:46:49.035Z,1.00
2022-07-29T04:49:18.657Z,1.00
2022-07-29T04:51:46.925Z,1.00
2022-07-29T04:54:15.191Z,1.00
2022-07-29T04:56:43.660Z,1.00
2022-07-29T04:59:11.672Z,1.00
2022-07-29T05:01:41.330Z,1.00
2022-07-29T05:04:09.834Z,1.00
2022-07-29T05:06:39.201Z,1.00
2022-07-29T05:09:07.242Z,1.00
2022-07-29T05:11:35.450Z,1.00
2022-07-29T05:14:03.489Z,1.00
2022-07-29T05:16:31.492Z,1.00
2022-07-29T05:18:59.754Z,1.00
2022-07-29T05:21:27.816Z,1.00
2022-07-29T05:23:57.234Z,1.00
2022-07-29T05:26:25.434Z,1.00
2022-07-29T05:28:54.911Z,2.60
2022-07-29T05:31:22.957Z,5.40
2022-07-29T05:33:51.285Z,1.00
2022-07-29T05:36:19.365Z,1.00
2022-07-29T05:38:47.462Z,1.00
2022-07-29T05:41:16.976Z,1.00
2022-07-29T05:43:45.113Z,1.00
2022-07-29T05:46:14.930Z,1.00
2022-07-29T05:48:43.145Z,1.00
2022-07-29T05:51:11.232Z,1.00
2022-07-29T05:53:39.308Z,1.00
2022-07-29T05:56:08.279Z,1.00
2022-07-29T05:58:37.735Z,1.00
2022-07-29T06:01:05.864Z,1.00
2022-07-29T06:03:33.958Z,1.00
2022-07-29T06:06:02.109Z,1.00
2022-07-29T06:08:30.117Z,1.00
2022-07-29T06:10:58.243Z,1.00
2022-07-29T06:13:26.439Z,1.00
2022-07-29T06:15:55.950Z,1.00
2022-07-29T06:18:24.867Z,1.00
2022-07-29T06:20:53.019Z,1.00
2022-07-29T06:23:22.328Z,11.70
2022-07-29T06:25:50.482Z,1.00
2022-07-29T06:28:18.679Z,19.00
2022-07-29T06:30:47.061Z,39.10
2022-07-29T06:33:20.721Z,41.80
2022-07-29T06:35:53.399Z,17.70
2022-07-29T06:38:31.276Z,31.80
2022-07-29T06:41:03.247Z,27.80
2022-07-29T06:43:34.884Z,35.50
2022-07-29T06:46:05.010Z,27.20
2022-07-29T06:48:35.312Z,22.50
2022-07-29T06:51:03.685Z,22.40
2022-07-29T06:53:32.454Z,1.00
2022-07-29T06:56:00.905Z,1.00
2022-07-29T06:58:30.025Z,1.00
2022-07-29T07:00:59.097Z,1.00
2022-07-29T07:03:27.495Z,1.00
2022-07-29T07:05:57.352Z,1.00
2022-07-29T07:08:25.953Z,1.00
2022-07-29T07:10:54.516Z,1.00
2022-07-29T07:13:22.740Z,1.00
2022-07-29T07:15:51.850Z,1.00
2022-07-29T07:18:20.676Z,1.00
2022-07-29T07:20:48.716Z,1.00
2022-07-29T07:23:18.317Z,1.00
2022-07-29T07:25:46.398Z,99.90
2022-07-29T07:28:14.399Z,99.90
2022-07-29T07:30:42.476Z,1.00
2022-07-29T07:33:10.488Z,1.00
2022-07-29T07:35:38.613Z,99.90
2022-07-29T07:38:07.797Z,32.20
2022-07-29T07:40:38.110Z,1.00
2022-07-29T07:43:06.182Z,1.00
2022-07-29T07:45:34.737Z,1.00
2022-07-29T07:48:03.098Z,99.90
2022-07-29T07:50:31.195Z,27.50
2022-07-29T07:52:59.608Z,1.00
2022-07-29T07:55:28.335Z,1.00
2022-07-29T07:57:57.865Z,44.10
2022-07-29T08:00:26.174Z,61.80
2022-07-29T08:02:54.434Z,1.00
2022-07-29T08:05:22.552Z,1.00
2022-07-29T08:07:51.078Z,1.00
2022-07-29T08:10:41.498Z,1.00
2022-07-29T08:13:12.806Z,99.90
2022-07-29T08:15:42.707Z,1.00
2022-07-29T08:18:10.972Z,1.00
2022-07-29T08:20:39.912Z,92.80
2022-07-29T08:23:09.824Z,99.90
2022-07-29T08:25:40.138Z,1.00
2022-07-29T08:28:08.460Z,1.00
2022-07-29T08:30:38.123Z,1.00
2022-07-29T08:33:06.211Z,1.00
2022-07-29T08:35:35.513Z,1.00
2022-07-29T08:38:05.436Z,99.90
2022-07-29T08:40:33.624Z,99.90
2022-07-29T08:43:06.921Z,99.90
2022-07-29T08:45:47.998Z,99.90
2022-07-29T08:48:18.233Z,99.90
2022-07-29T08:50:47.569Z,99.90
2022-07-29T08:53:17.395Z,99.90
2022-07-29T08:55:47.295Z,99.90
2022-07-29T08:58:16.310Z,1.00
2022-07-29T09:00:48.587Z,1.00
2022-07-29T09:03:22.212Z,30.90
2022-07-29T09:05:51.052Z,1.00
2022-07-29T09:08:19.709Z,1.00
2022-07-29T09:10:47.844Z,1.00
2022-07-29T09:13:15.932Z,1.00
2022-07-29T09:15:46.059Z,1.00
2022-07-29T09:18:19.789Z,1.00
2022-07-29T09:21:16.850Z,1.00
2022-07-29T09:24:02.373Z,1.00
2022-07-29T09:26:31.673Z,1.00
2022-07-29T09:29:00.715Z,1.00
2022-07-29T09:31:37.924Z,1.00
2022-07-29T09:34:06.840Z,1.00
2022-07-29T09:36:41.512Z,1.00
2022-07-29T09:39:09.561Z,1.00
2022-07-29T09:41:48.885Z,1.00
2022-07-29T09:44:17.982Z,1.00
2022-07-29T09:47:07.934Z,1.00
2022-07-29T09:49:36.700Z,1.00
2022-07-29T09:52:09.933Z,1.00
2022-07-29T09:54:38.824Z,99.90
2022-07-29T09:57:07.802Z,99.90
2022-07-29T09:59:36.135Z,99.90
2022-07-29T10:02:23.514Z,99.90
2022-07-29T10:04:52.190Z,99.90
2022-07-29T10:07:20.572Z,99.90
2022-07-29T10:09:55.772Z,99.90
2022-07-29T10:12:24.475Z,99.90
2022-07-29T10:14:53.363Z,99.90
2022-07-29T10:17:23.819Z,99.90
2022-07-29T10:19:52.004Z,99.90
2022-07-29T10:22:50.416Z,99.90
2022-07-29T10:25:10.683Z,99.90
2022-07-29T10:27:40.158Z,99.90
2022-07-29T10:30:09.269Z,99.90
2022-07-29T10:32:59.882Z,99.90
2022-07-29T10:35:44.254Z,99.90
2022-07-29T10:38:45.900Z,99.90
2022-07-29T10:41:49.744Z,99.90
2022-07-29T10:44:23.154Z,99.90
2022-07-29T10:46:53.389Z,99.90
2022-07-29T10:49:25.961Z,99.90
2022-07-29T10:52:00.187Z,99.90
2022-07-29T10:54:44.695Z,99.90
2022-07-29T10:57:25.797Z,99.90
2022-07-29T11:00:31.497Z,99.90
2022-07-29T11:03:01.060Z,99.90
2022-07-29T11:05:55.321Z,99.90
2022-07-29T11:08:27.718Z,99.90
2022-07-29T11:14:58.634Z,90.80
2022-07-29T11:17:26.963Z,76.50
2022-07-29T11:20:36.661Z,1.00
2022-07-29T11:23:21.818Z,1.00
2022-07-29T11:26:23.052Z,1.00
2022-07-29T11:28:55.991Z,1.00
2022-07-29T11:31:39.924Z,1.00
2022-07-29T11:34:28.168Z,1.00
2022-07-29T11:40:20.170Z,1.00
2022-07-29T11:42:52.772Z,1.00
2022-07-29T11:45:48.082Z,1.00
2022-07-29T11:48:29.198Z,1.00
2022-07-29T11:51:01.099Z,1.00
2022-07-29T11:53:32.843Z,1.00
2022-07-29T11:56:03.648Z,1.00
2022-07-29T11:58:32.649Z,1.00
2022-07-29T12:01:04.560Z,1.00
2022-07-29T12:03:36.185Z,1.00
2022-07-29T12:06:07.588Z,1.00
2022-07-29T12:08:43.624Z,1.00
2022-07-29T12:11:20.908Z,1.00
2022-07-29T12:13:50.828Z,1.00
2022-07-29T12:16:25.832Z,1.00
2022-07-29T12:18:59.516Z,1.00
2022-07-29T12:21:28.828Z,1.00
2022-07-29T12:24:05.725Z,1.00
2022-07-29T12:26:37.911Z,1.00
2022-07-29T12:29:15.498Z,1.00
2022-07-29T12:31:48.950Z,1.00
2022-07-29T12:34:18.564Z,1.00
2022-07-29T12:36:46.799Z,1.00
2022-07-29T12:39:18.149Z,1.00
2022-07-29T12:41:46.285Z,1.00
2022-07-29T12:44:14.380Z,1.00
2022-07-29T12:46:42.759Z,1.00
2022-07-29T12:49:10.974Z,1.00
2022-07-29T12:51:41.972Z,1.00
2022-07-29T12:54:12.365Z,1.00
2022-07-29T12:56:44.007Z,1.00
2022-07-29T12:59:17.806Z,1.00
2022-07-29T13:01:48.078Z,1.00
2022-07-29T13:04:27.439Z,1.00
2022-07-29T13:07:01.631Z,1.00
2022-07-29T13:09:39.768Z,1.00
2022-07-29T13:12:11.130Z,1.00
2022-07-29T13:14:41.422Z,1.00
2022-07-29T13:17:11.674Z,1.00
2022-07-29T13:19:42.348Z,1.00
2022-07-29T13:22:11.498Z,1.00
2022-07-29T13:24:50.499Z,1.00
2022-07-29T13:27:21.258Z,1.00
2022-07-29T13:29:52.131Z,1.00
2022-07-29T13:32:28.479Z,1.00
2022-07-29T13:34:57.491Z,1.00
2022-07-29T13:37:26.900Z,1.00
2022-07-29T13:39:55.275Z,1.00
2022-07-29T13:42:25.781Z,1.00
2022-07-29T13:44:54.168Z,1.00
2022-07-29T13:47:22.828Z,1.00
2022-07-29T13:50:01.402Z,1.00
2022-07-29T13:52:29.543Z,1.00
2022-07-29T13:54:57.630Z,1.00
2022-07-29T13:57:27.325Z,1.00
2022-07-29T13:59:55.442Z,1.00
2022-07-29T14:02:25.907Z,1.00
2022-07-29T14:04:54.683Z,1.00
2022-07-29T14:07:23.342Z,1.00
2022-07-29T14:09:51.400Z,1.00
2022-07-29T14:12:20.136Z,1.00
2022-07-29T14:14:49.618Z,1.00
2022-07-29T14:17:17.938Z,1.00
2022-07-29T14:19:46.031Z,1.00
2022-07-29T14:22:14.131Z,1.00
2022-07-29T14:24:42.179Z,1.00
2022-07-29T14:27:11.095Z,1.00
2022-07-29T15:31:17.397Z,1.00
2022-07-29T15:33:45.458Z,1.00
2022-07-29T15:36:35.626Z,1.00
2022-07-29T15:39:02.162Z,1.00
2022-07-29T15:41:30.214Z,1.00
2022-07-29T15:43:58.305Z,1.00
2022-07-29T15:46:45.124Z,1.00
2022-07-29T15:49:13.266Z,1.00
2022-07-29T15:51:41.531Z,1.00
2022-07-29T15:54:09.944Z,1.00
2022-07-29T15:56:38.742Z,1.00
2022-07-29T15:59:06.908Z,1.00
2022-07-29T16:01:36.320Z,1.00
2022-07-29T16:04:10.716Z,1.00
2022-07-29T16:06:38.824Z,1.00
2022-07-29T16:09:06.823Z,1.00
2022-07-29T16:11:35.007Z,1.00
2022-07-29T16:14:03.143Z,1.00
2022-07-29T16:16:31.378Z,1.00
2022-07-29T16:19:00.965Z,1.00
2022-07-29T16:21:29.014Z,1.00
2022-07-29T16:23:57.090Z,1.00
2022-07-29T16:26:25.337Z,1.00
2022-07-29T16:28:53.480Z,1.00
2022-07-29T16:31:23.105Z,1.00
2022-07-29T16:33:54.752Z,1.00
2022-07-29T16:36:25.362Z,1.00
2022-07-29T16:38:53.570Z,1.00
2022-07-29T16:41:21.597Z,1.00
2022-07-29T16:43:49.688Z,1.00
2022-07-29T16:46:18.996Z,1.00
2022-07-29T16:48:47.544Z,1.00
2022-07-29T16:51:16.679Z,1.00
2022-07-29T16:53:46.258Z,1.00
2022-07-29T16:56:17.884Z,1.00
2022-07-29T16:58:46.104Z,1.00
2022-07-29T17:01:14.269Z,1.00
2022-07-29T17:04:02.730Z,1.00
2022-07-29T17:06:32.148Z,1.00
2022-07-29T17:09:01.794Z,1.00
2022-07-29T17:11:53.171Z,1.00
2022-07-29T17:14:18.067Z,1.00
2022-07-29T17:16:51.664Z,1.00
2022-07-29T17:19:30.781Z,1.00
2022-07-29T17:22:12.956Z,1.00
2022-07-29T17:24:44.035Z,1.00
2022-07-29T17:27:12.395Z,1.00
2022-07-29T17:29:40.918Z,1.00
2022-07-29T17:32:10.474Z,1.00
2022-07-29T17:34:39.178Z,1.00
2022-07-29T17:37:09.431Z,1.00
2022-07-29T17:39:40.605Z,1.00
2022-07-29T17:42:11.573Z,1.00
2022-07-29T17:44:39.808Z,1.00
2022-07-29T17:47:16.199Z,1.00
2022-07-29T17:49:45.182Z,1.00
2022-07-29T17:52:13.537Z,1.00
2022-07-29T17:54:41.537Z,1.00
2022-07-29T17:57:11.013Z,1.00
2022-07-29T17:59:39.112Z,1.00
2022-07-29T18:02:07.493Z,1.00
2022-07-29T18:04:35.491Z,1.00
2022-07-29T18:07:03.738Z,1.00
2022-07-29T18:09:31.775Z,1.00
2022-07-29T18:11:59.829Z,1.00
2022-07-29T18:14:29.329Z,1.00
2022-07-29T18:16:57.675Z,1.00
2022-07-29T18:19:25.912Z,1.00
2022-07-29T18:21:55.887Z,1.00
2022-07-29T18:24:27.650Z,1.00
2022-07-29T18:26:56.737Z,1.00
2022-07-29T18:29:24.961Z,1.00
2022-07-29T18:31:54.497Z,1.00
2022-07-29T18:34:22.582Z,1.00
2022-07-29T18:36:50.733Z,1.00
2022-07-29T18:39:20.927Z,1.00
2022-07-29T18:41:51.062Z,1.00
2022-07-29T18:44:21.850Z,1.00
2022-07-29T18:46:51.140Z,1.00
2022-07-29T18:49:21.013Z,1.00
2022-07-29T18:51:49.462Z,1.00
2022-07-29T18:54:18.662Z,1.00
2022-07-29T18:56:47.846Z,1.00
2022-07-29T18:59:19.675Z,1.00
2022-07-29T19:01:48.591Z,1.00
2022-07-29T19:04:17.310Z,1.00
2022-07-29T19:06:46.749Z,1.00
2022-07-29T19:09:15.197Z,1.00
2022-07-29T19:11:43.211Z,1.00
2022-07-29T19:14:11.386Z,1.00
2022-07-29T19:16:39.607Z,1.00
2022-07-29T19:19:08.846Z,1.00
2022-07-29T19:21:36.872Z,1.00
2022-07-29T19:24:12.329Z,1.00
2022-07-29T19:26:46.681Z,1.00
2022-07-29T19:29:15.426Z,1.00
2022-07-29T19:31:44.068Z,1.00
2022-07-29T19:34:12.742Z,1.00
2022-07-29T19:36:41.802Z,1.00
2022-07-29T19:39:11.612Z,1.00
2022-07-29T19:41:39.689Z,1.00
2022-07-29T19:44:07.654Z,1.00
2022-07-29T19:46:35.751Z,1.00
2022-07-29T19:49:06.532Z,1.00
2022-07-29T19:51:34.769Z,1.00
2022-07-29T19:54:03.022Z,1.00
2022-07-29T19:56:32.632Z,1.00
2022-07-29T19:59:01.827Z,4.10
2022-07-29T20:01:30.526Z,27.20
2022-07-29T20:03:58.667Z,44.80
2022-07-29T20:06:27.143Z,52.10
2022-07-29T20:08:58.752Z,90.40
2022-07-29T20:11:29.679Z,90.50
2022-07-29T20:13:59.113Z,98.30
2022-07-29T20:16:27.228Z,99.90
2022-07-29T20:18:55.542Z,99.90
2022-07-29T20:21:23.574Z,99.90
2022-07-29T20:23:51.659Z,99.90
2022-07-29T20:26:19.865Z,99.90
2022-07-29T20:28:49.596Z,99.90
2022-07-29T20:31:19.770Z,99.90
2022-07-29T20:33:47.991Z,99.90
2022-07-29T20:36:16.343Z,99.90
2022-07-29T20:38:44.355Z,99.90
2022-07-29T20:41:12.533Z,99.90
2022-07-29T20:43:40.947Z,99.90
2022-07-29T20:46:09.058Z,99.90
2022-07-29T20:48:39.842Z,99.90
2022-07-29T20:51:08.332Z,99.90
2022-07-29T20:53:38.333Z,99.90
2022-07-29T20:56:07.058Z,99.90
2022-07-29T20:58:36.601Z,99.90
2022-07-29T21:01:04.976Z,99.90
2022-07-29T21:03:33.641Z,99.90
2022-07-29T21:06:03.763Z,99.90
2022-07-29T21:08:32.084Z,99.90
2022-07-29T21:11:00.194Z,99.90
2022-07-29T21:13:28.407Z,99.90
2022-07-29T21:16:01.003Z,99.90
2022-07-29T21:18:30.751Z,99.90
2022-07-29T21:21:03.447Z,1.00
2022-07-29T21:23:32.521Z,1.00
2022-07-29T21:26:00.895Z,1.00
2022-07-29T21:28:29.062Z,1.00
2022-07-29T21:30:59.560Z,1.00
2022-07-29T21:33:28.965Z,1.00
2022-07-29T21:36:26.649Z,1.00
2022-07-29T21:38:46.585Z,1.00
2022-07-29T21:41:15.426Z,15.90
2022-07-29T21:43:43.479Z,99.90
2022-07-29T21:46:11.737Z,99.90
2022-07-29T21:48:44.235Z,1.00
2022-07-29T21:51:12.869Z,1.00
2022-07-29T21:53:41.082Z,1.00
2022-07-29T21:56:14.589Z,1.00
2022-07-29T21:58:43.676Z,99.90
2022-07-29T22:01:11.736Z,99.90
2022-07-29T22:03:39.879Z,1.00
2022-07-29T22:06:08.233Z,1.00
2022-07-29T22:08:40.362Z,1.00
2022-07-29T22:11:08.394Z,1.00
2022-07-29T22:13:38.028Z,1.00
2022-07-29T22:16:06.892Z,1.00
2022-07-29T22:18:34.913Z,1.00
2022-07-29T22:21:03.065Z,1.00
2022-07-29T22:23:31.997Z,1.00
2022-07-29T22:25:59.996Z,1.00
2022-07-29T22:28:28.303Z,1.00
2022-07-29T22:30:57.792Z,1.00
2022-07-29T22:33:26.148Z,1.00
2022-07-29T22:35:54.450Z,1.00
2022-07-29T22:38:22.527Z,1.00
2022-07-29T22:40:51.297Z,1.00
2022-07-29T22:43:19.865Z,1.00
2022-07-29T22:45:48.098Z,1.00
2022-07-29T22:48:17.850Z,1.00
2022-07-29T22:50:46.278Z,1.00
2022-07-29T22:53:14.402Z,1.00
2022-07-29T22:55:42.584Z,1.00
2022-07-29T22:58:10.872Z,1.00
2022-07-29T23:00:39.066Z,1.00
2022-07-29T23:03:07.125Z,9.60
2022-07-29T23:05:36.683Z,34.10
2022-07-29T23:08:05.274Z,73.70
2022-07-29T23:10:33.513Z,91.60
2022-07-29T23:13:01.540Z,98.90
2022-07-29T23:15:29.601Z,99.90
2022-07-29T23:17:58.720Z,99.90
2022-07-29T23:20:26.954Z,99.90
2022-07-29T23:22:56.361Z,99.90
2022-07-29T23:25:24.371Z,99.90
2022-07-29T23:27:52.421Z,99.90
2022-07-29T23:30:20.521Z,99.90
2022-07-29T23:32:48.851Z,99.90
2022-07-29T23:35:16.887Z,99.90
2022-07-29T23:37:45.197Z,99.90
2022-07-29T23:40:15.806Z,99.90
2022-07-29T23:42:44.451Z,99.90
2022-07-29T23:45:13.880Z,99.90
2022-07-29T23:47:42.201Z,99.90
2022-07-29T23:50:13.018Z,99.90
2022-07-29T23:52:41.549Z,99.90
2022-07-29T23:55:38.035Z,99.90
2022-07-29T23:57:59.793Z,99.90
